sensor_id;sensor_type;location;lat;lon;timestamp;P1;durP1;ratioP1;P2;durP2;ratioP2
20865;SDS011;10593;48.398;10.698;2024-01-15T00:01:57;11.80;;;9.17;;
20865;SDS011;10593;48.398;10.698;2024-01-15T00:04:23;10.73;;;9.57;;
20865;SDS011;10593;48.398;10.698;2024-01-15T00:06:49;14.53;;;10.63;;
20865;SDS011;10593;48.398;10.698;2024-01-15T00:09:15;12.13;;;9.50;;
20865;SDS011;10593;48.398;10.698;2024-01-15T00:11:40;11.60;;;10.10;;
20865;SDS011;10593;48.398;10.698;2024-01-15T00:14:07;12.73;;;9.77;;
20865;SDS011;10593;48.398;10.698;2024-01-15T00:16:33;11.27;;;9.13;;
20865;SDS011;10593;48.398;10.698;2024-01-15T00:18:59;11.50;;;9.47;;
20865;SDS011;10593;48.398;10.698;2024-01-15T00:21:25;12.80;;;9.43;;
20865;SDS011;10593;48.398;10.698;2024-01-15T00:23:50;13.10;;;9.37;;
20865;SDS011;10593;48.398;10.698;2024-01-15T00:26:16;11.33;;;8.90;;
20865;SDS011;10593;48.398;10.698;2024-01-15T00:28:41;12.43;;;9.70;;
20865;SDS011;10593;48.398;10.698;2024-01-15T00:31:07;12.20;;;8.90;;
20865;SDS011;10593;48.398;10.698;2024-01-15T00:33:33;12.63;;;9.43;;
20865;SDS011;10593;48.398;10.698;2024-01-15T00:35:59;12.00;;;9.43;;
20865;SDS011;10593;48.398;10.698;2024-01-15T00:38:24;11.17;;;9.03;;
20865;SDS011;10593;48.398;10.698;2024-01-15T00:40:50;11.80;;;9.33;;
20865;SDS011;10593;48.398;10.698;2024-01-15T00:43:15;12.90;;;9.40;;
20865;SDS011;10593;48.398;10.698;2024-01-15T00:45:43;12.90;;;9.50;;
20865;SDS011;10593;48.398;10.698;2024-01-15T00:48:10;12.87;;;10.03;;
20865;SDS011;10593;48.398;10.698;2024-01-15T00:50:35;13.63;;;9.83;;
20865;SDS011;10593;48.398;10.698;2024-01-15T00:53:01;13.00;;;9.83;;
20865;SDS011;10593;48.398;10.698;2024-01-15T00:55:28;11.03;;;9.27;;
20865;SDS011;10593;48.398;10.698;2024-01-15T00:57:54;12.53;;;10.00;;
20865;SDS011;10593;48.398;10.698;2024-01-15T01:00:19;12.20;;;9.20;;
20865;SDS011;10593;48.398;10.698;2024-01-15T01:02:45;11.60;;;9.27;;
20865;SDS011;10593;48.398;10.698;2024-01-15T01:05:11;11.70;;;9.40;;
20865;SDS011;10593;48.398;10.698;2024-01-15T01:07:36;10.97;;;8.57;;
20865;SDS011;10593;48.398;10.698;2024-01-15T01:10:02;12.43;;;9.53;;
20865;SDS011;10593;48.398;10.698;2024-01-15T01:12:29;11.10;;;9.00;;
20865;SDS011;10593;48.398;10.698;2024-01-15T01:14:55;12.53;;;9.40;;
20865;SDS011;10593;48.398;10.698;2024-01-15T01:17:21;13.13;;;9.57;;
20865;SDS011;10593;48.398;10.698;2024-01-15T01:19:47;11.93;;;8.70;;
20865;SDS011;10593;48.398;10.698;2024-01-15T01:22:12;9.73;;;8.03;;
20865;SDS011;10593;48.398;10.698;2024-01-15T01:24:38;10.77;;;9.07;;
20865;SDS011;10593;48.398;10.698;2024-01-15T01:27:04;10.33;;;8.20;;
20865;SDS011;10593;48.398;10.698;2024-01-15T01:29:29;9.00;;;7.93;;
20865;SDS011;10593;48.398;10.698;2024-01-15T01:31:55;10.70;;;7.80;;
20865;SDS011;10593;48.398;10.698;2024-01-15T01:34:21;11.07;;;8.27;;
20865;SDS011;10593;48.398;10.698;2024-01-15T01:36:47;9.60;;;7.37;;
20865;SDS011;10593;48.398;10.698;2024-01-15T01:39:13;9.10;;;7.93;;
20865;SDS011;10593;48.398;10.698;2024-01-15T01:41:38;9.70;;;7.23;;
20865;SDS011;10593;48.398;10.698;2024-01-15T01:44:05;9.20;;;6.77;;
20865;SDS011;10593;48.398;10.698;2024-01-15T01:46:31;9.80;;;6.83;;
20865;SDS011;10593;48.398;10.698;2024-01-15T01:48:56;10.27;;;7.97;;
20865;SDS011;10593;48.398;10.698;2024-01-15T01:51:26;10.97;;;7.33;;
20865;SDS011;10593;48.398;10.698;2024-01-15T01:53:52;8.97;;;7.40;;
20865;SDS011;10593;48.398;10.698;2024-01-15T01:56:17;7.60;;;6.70;;
20865;SDS011;10593;48.398;10.698;2024-01-15T01:58:44;9.23;;;7.23;;
20865;SDS011;10593;48.398;10.698;2024-01-15T02:01:10;8.57;;;6.87;;
20865;SDS011;10593;48.398;10.698;2024-01-15T02:03:38;9.27;;;7.03;;
20865;SDS011;10593;48.398;10.698;2024-01-15T02:06:06;10.80;;;8.00;;
20865;SDS011;10593;48.398;10.698;2024-01-15T02:08:32;9.03;;;6.83;;
20865;SDS011;10593;48.398;10.698;2024-01-15T02:10:58;7.73;;;6.20;;
20865;SDS011;10593;48.398;10.698;2024-01-15T02:13:23;9.10;;;7.30;;
20865;SDS011;10593;48.398;10.698;2024-01-15T02:15:49;8.60;;;6.30;;
20865;SDS011;10593;48.398;10.698;2024-01-15T02:18:15;8.70;;;6.87;;
20865;SDS011;10593;48.398;10.698;2024-01-15T02:20:40;9.00;;;6.57;;
20865;SDS011;10593;48.398;10.698;2024-01-15T02:25:40;8.30;;;6.93;;
20865;SDS011;10593;48.398;10.698;2024-01-15T02:28:09;9.63;;;7.37;;
20865;SDS011;10593;48.398;10.698;2024-01-15T02:30:38;7.93;;;6.50;;
20865;SDS011;10593;48.398;10.698;2024-01-15T02:33:05;8.10;;;6.77;;
20865;SDS011;10593;48.398;10.698;2024-01-15T02:35:32;8.10;;;6.47;;
20865;SDS011;10593;48.398;10.698;2024-01-15T02:37:59;8.90;;;6.60;;
20865;SDS011;10593;48.398;10.698;2024-01-15T02:40:24;8.53;;;7.17;;
20865;SDS011;10593;48.398;10.698;2024-01-15T02:42:50;8.50;;;6.33;;
20865;SDS011;10593;48.398;10.698;2024-01-15T02:45:16;8.33;;;6.60;;
20865;SDS011;10593;48.398;10.698;2024-01-15T02:47:42;8.10;;;6.50;;
20865;SDS011;10593;48.398;10.698;2024-01-15T02:50:08;9.00;;;6.73;;
20865;SDS011;10593;48.398;10.698;2024-01-15T02:52:33;7.90;;;6.90;;
20865;SDS011;10593;48.398;10.698;2024-01-15T02:54:59;9.67;;;7.37;;
20865;SDS011;10593;48.398;10.698;2024-01-15T02:57:25;9.67;;;7.10;;
20865;SDS011;10593;48.398;10.698;2024-01-15T02:59:50;8.73;;;6.53;;
20865;SDS011;10593;48.398;10.698;2024-01-15T03:02:16;9.77;;;7.27;;
20865;SDS011;10593;48.398;10.698;2024-01-15T03:04:45;9.07;;;6.77;;
20865;SDS011;10593;48.398;10.698;2024-01-15T03:07:11;7.90;;;6.17;;
20865;SDS011;10593;48.398;10.698;2024-01-15T03:09:37;8.83;;;6.67;;
20865;SDS011;10593;48.398;10.698;2024-01-15T03:12:03;7.87;;;6.40;;
20865;SDS011;10593;48.398;10.698;2024-01-15T03:14:29;9.13;;;7.00;;
20865;SDS011;10593;48.398;10.698;2024-01-15T03:16:55;9.57;;;7.07;;
20865;SDS011;10593;48.398;10.698;2024-01-15T03:19:21;9.40;;;7.27;;
20865;SDS011;10593;48.398;10.698;2024-01-15T03:21:46;10.23;;;7.20;;
20865;SDS011;10593;48.398;10.698;2024-01-15T03:24:12;7.77;;;6.97;;
20865;SDS011;10593;48.398;10.698;2024-01-15T03:26:38;8.77;;;7.63;;
20865;SDS011;10593;48.398;10.698;2024-01-15T03:29:04;8.47;;;6.30;;
20865;SDS011;10593;48.398;10.698;2024-01-15T03:31:29;7.03;;;6.23;;
20865;SDS011;10593;48.398;10.698;2024-01-15T03:33:56;6.90;;;6.10;;
20865;SDS011;10593;48.398;10.698;2024-01-15T03:36:22;8.27;;;6.37;;
20865;SDS011;10593;48.398;10.698;2024-01-15T03:38:47;8.13;;;6.40;;
20865;SDS011;10593;48.398;10.698;2024-01-15T03:41:13;8.03;;;6.77;;
20865;SDS011;10593;48.398;10.698;2024-01-15T03:43:39;8.53;;;6.30;;
20865;SDS011;10593;48.398;10.698;2024-01-15T03:46:05;8.50;;;6.20;;
20865;SDS011;10593;48.398;10.698;2024-01-15T03:48:30;8.03;;;6.53;;
20865;SDS011;10593;48.398;10.698;2024-01-15T03:50:56;7.83;;;5.93;;
20865;SDS011;10593;48.398;10.698;2024-01-15T03:53:22;8.07;;;5.90;;
20865;SDS011;10593;48.398;10.698;2024-01-15T03:55:48;7.57;;;5.70;;
20865;SDS011;10593;48.398;10.698;2024-01-15T03:58:14;7.00;;;6.00;;
20865;SDS011;10593;48.398;10.698;2024-01-15T04:00:40;7.27;;;5.67;;
20865;SDS011;10593;48.398;10.698;2024-01-15T04:03:07;6.87;;;5.57;;
20865;SDS011;10593;48.398;10.698;2024-01-15T04:05:33;7.70;;;6.13;;
20865;SDS011;10593;48.398;10.698;2024-01-15T04:07:58;8.07;;;6.43;;
20865;SDS011;10593;48.398;10.698;2024-01-15T04:10:24;7.10;;;5.87;;
20865;SDS011;10593;48.398;10.698;2024-01-15T04:12:49;8.17;;;5.73;;
20865;SDS011;10593;48.398;10.698;2024-01-15T04:15:15;7.47;;;5.60;;
20865;SDS011;10593;48.398;10.698;2024-01-15T04:17:41;8.23;;;6.00;;
20865;SDS011;10593;48.398;10.698;2024-01-15T04:20:07;7.03;;;5.93;;
20865;SDS011;10593;48.398;10.698;2024-01-15T04:22:35;6.53;;;5.10;;
20865;SDS011;10593;48.398;10.698;2024-01-15T04:25:01;7.73;;;5.73;;
20865;SDS011;10593;48.398;10.698;2024-01-15T04:27:27;7.37;;;5.63;;
20865;SDS011;10593;48.398;10.698;2024-01-15T04:29:53;8.23;;;6.30;;
20865;SDS011;10593;48.398;10.698;2024-01-15T04:32:19;6.17;;;5.33;;
20865;SDS011;10593;48.398;10.698;2024-01-15T04:34:45;7.47;;;5.80;;
20865;SDS011;10593;48.398;10.698;2024-01-15T04:37:10;6.33;;;5.67;;
20865;SDS011;10593;48.398;10.698;2024-01-15T04:39:36;6.60;;;5.23;;
20865;SDS011;10593;48.398;10.698;2024-01-15T04:42:02;8.33;;;5.97;;
20865;SDS011;10593;48.398;10.698;2024-01-15T04:44:28;6.63;;;5.20;;
20865;SDS011;10593;48.398;10.698;2024-01-15T04:46:54;6.00;;;5.07;;
20865;SDS011;10593;48.398;10.698;2024-01-15T04:49:20;6.67;;;5.77;;
20865;SDS011;10593;48.398;10.698;2024-01-15T04:51:45;6.27;;;5.07;;
20865;SDS011;10593;48.398;10.698;2024-01-15T04:54:11;8.77;;;5.33;;
20865;SDS011;10593;48.398;10.698;2024-01-15T04:56:37;5.37;;;4.53;;
20865;SDS011;10593;48.398;10.698;2024-01-15T04:59:02;5.80;;;5.00;;
20865;SDS011;10593;48.398;10.698;2024-01-15T05:01:31;6.23;;;5.13;;
20865;SDS011;10593;48.398;10.698;2024-01-15T05:03:57;6.63;;;5.43;;
20865;SDS011;10593;48.398;10.698;2024-01-15T05:06:24;6.77;;;5.10;;
20865;SDS011;10593;48.398;10.698;2024-01-15T05:08:49;6.20;;;4.67;;
20865;SDS011;10593;48.398;10.698;2024-01-15T05:11:15;6.30;;;4.87;;
20865;SDS011;10593;48.398;10.698;2024-01-15T05:13:41;6.17;;;4.70;;
20865;SDS011;10593;48.398;10.698;2024-01-15T05:16:06;4.73;;;4.23;;
20865;SDS011;10593;48.398;10.698;2024-01-15T05:18:32;6.33;;;4.90;;
20865;SDS011;10593;48.398;10.698;2024-01-15T05:20:58;5.13;;;4.60;;
20865;SDS011;10593;48.398;10.698;2024-01-15T05:23:24;6.80;;;4.90;;
20865;SDS011;10593;48.398;10.698;2024-01-15T05:25:49;6.17;;;4.87;;
20865;SDS011;10593;48.398;10.698;2024-01-15T05:28:15;7.17;;;5.63;;
20865;SDS011;10593;48.398;10.698;2024-01-15T05:30:41;5.87;;;4.90;;
20865;SDS011;10593;48.398;10.698;2024-01-15T05:33:06;5.97;;;4.80;;
20865;SDS011;10593;48.398;10.698;2024-01-15T05:35:32;6.10;;;4.90;;
20865;SDS011;10593;48.398;10.698;2024-01-15T05:37:59;5.40;;;4.67;;
20865;SDS011;10593;48.398;10.698;2024-01-15T05:40:25;5.80;;;4.50;;
20865;SDS011;10593;48.398;10.698;2024-01-15T05:42:50;5.30;;;4.50;;
20865;SDS011;10593;48.398;10.698;2024-01-15T05:45:16;4.57;;;4.10;;
20865;SDS011;10593;48.398;10.698;2024-01-15T05:47:42;4.47;;;3.73;;
20865;SDS011;10593;48.398;10.698;2024-01-15T05:50:09;6.60;;;4.30;;
20865;SDS011;10593;48.398;10.698;2024-01-15T05:52:35;5.03;;;4.10;;
20865;SDS011;10593;48.398;10.698;2024-01-15T05:55:01;4.30;;;3.90;;
20865;SDS011;10593;48.398;10.698;2024-01-15T05:57:27;5.03;;;4.03;;
20865;SDS011;10593;48.398;10.698;2024-01-15T05:59:53;4.50;;;3.90;;
20865;SDS011;10593;48.398;10.698;2024-01-15T06:02:19;4.27;;;3.80;;
20865;SDS011;10593;48.398;10.698;2024-01-15T06:04:45;5.43;;;4.33;;
20865;SDS011;10593;48.398;10.698;2024-01-15T06:07:11;4.77;;;3.70;;
20865;SDS011;10593;48.398;10.698;2024-01-15T06:09:36;4.00;;;3.60;;
20865;SDS011;10593;48.398;10.698;2024-01-15T06:12:03;4.90;;;3.93;;
20865;SDS011;10593;48.398;10.698;2024-01-15T06:14:30;4.70;;;3.93;;
20865;SDS011;10593;48.398;10.698;2024-01-15T06:16:55;4.33;;;3.77;;
20865;SDS011;10593;48.398;10.698;2024-01-15T06:19:21;3.80;;;3.30;;
20865;SDS011;10593;48.398;10.698;2024-01-15T06:21:46;5.37;;;3.70;;
20865;SDS011;10593;48.398;10.698;2024-01-15T06:24:12;4.63;;;3.93;;
20865;SDS011;10593;48.398;10.698;2024-01-15T06:26:38;4.83;;;4.10;;
20865;SDS011;10593;48.398;10.698;2024-01-15T06:29:04;4.07;;;3.67;;
20865;SDS011;10593;48.398;10.698;2024-01-15T06:31:29;4.33;;;3.93;;
20865;SDS011;10593;48.398;10.698;2024-01-15T06:33:55;3.80;;;3.50;;
20865;SDS011;10593;48.398;10.698;2024-01-15T06:36:21;5.07;;;3.70;;
20865;SDS011;10593;48.398;10.698;2024-01-15T06:38:46;3.70;;;3.40;;
20865;SDS011;10593;48.398;10.698;2024-01-15T06:41:12;3.80;;;3.43;;
20865;SDS011;10593;48.398;10.698;2024-01-15T06:43:38;4.53;;;3.77;;
20865;SDS011;10593;48.398;10.698;2024-01-15T06:46:04;3.60;;;2.97;;
20865;SDS011;10593;48.398;10.698;2024-01-15T06:48:29;3.70;;;3.27;;
20865;SDS011;10593;48.398;10.698;2024-01-15T06:50:55;3.77;;;3.27;;
20865;SDS011;10593;48.398;10.698;2024-01-15T06:53:21;3.77;;;3.27;;
20865;SDS011;10593;48.398;10.698;2024-01-15T06:55:46;3.40;;;3.10;;
20865;SDS011;10593;48.398;10.698;2024-01-15T06:58:12;4.60;;;3.67;;
20865;SDS011;10593;48.398;10.698;2024-01-15T07:00:38;3.70;;;3.27;;
20865;SDS011;10593;48.398;10.698;2024-01-15T07:03:03;4.30;;;3.43;;
20865;SDS011;10593;48.398;10.698;2024-01-15T07:05:29;4.17;;;3.73;;
20865;SDS011;10593;48.398;10.698;2024-01-15T07:07:55;4.53;;;3.60;;
20865;SDS011;10593;48.398;10.698;2024-01-15T07:10:21;5.13;;;4.27;;
20865;SDS011;10593;48.398;10.698;2024-01-15T07:12:47;5.23;;;3.93;;
20865;SDS011;10593;48.398;10.698;2024-01-15T07:15:13;4.43;;;3.63;;
20865;SDS011;10593;48.398;10.698;2024-01-15T07:17:39;3.87;;;3.20;;
20865;SDS011;10593;48.398;10.698;2024-01-15T07:20:06;4.43;;;3.80;;
20865;SDS011;10593;48.398;10.698;2024-01-15T07:22:35;5.20;;;4.70;;
20865;SDS011;10593;48.398;10.698;2024-01-15T07:25:01;4.20;;;3.80;;
20865;SDS011;10593;48.398;10.698;2024-01-15T07:27:27;5.23;;;4.03;;
20865;SDS011;10593;48.398;10.698;2024-01-15T07:29:53;4.30;;;3.90;;
20865;SDS011;10593;48.398;10.698;2024-01-15T07:32:18;4.33;;;3.33;;
20865;SDS011;10593;48.398;10.698;2024-01-15T07:34:45;3.97;;;3.63;;
20865;SDS011;10593;48.398;10.698;2024-01-15T07:37:11;3.87;;;3.47;;
20865;SDS011;10593;48.398;10.698;2024-01-15T07:39:36;4.53;;;3.43;;
20865;SDS011;10593;48.398;10.698;2024-01-15T07:42:03;4.60;;;3.73;;
20865;SDS011;10593;48.398;10.698;2024-01-15T07:44:29;3.70;;;3.10;;
20865;SDS011;10593;48.398;10.698;2024-01-15T07:46:54;3.57;;;3.27;;
20865;SDS011;10593;48.398;10.698;2024-01-15T07:49:20;4.23;;;3.10;;
20865;SDS011;10593;48.398;10.698;2024-01-15T07:51:45;5.07;;;3.10;;
20865;SDS011;10593;48.398;10.698;2024-01-15T07:54:11;3.17;;;2.63;;
20865;SDS011;10593;48.398;10.698;2024-01-15T07:56:55;3.87;;;2.67;;
20865;SDS011;10593;48.398;10.698;2024-01-15T07:59:23;3.67;;;2.83;;
20865;SDS011;10593;48.398;10.698;2024-01-15T08:01:49;3.30;;;3.00;;
20865;SDS011;10593;48.398;10.698;2024-01-15T08:04:15;3.00;;;2.70;;
20865;SDS011;10593;48.398;10.698;2024-01-15T08:06:41;3.27;;;2.90;;
20865;SDS011;10593;48.398;10.698;2024-01-15T08:09:06;3.43;;;2.83;;
20865;SDS011;10593;48.398;10.698;2024-01-15T08:11:33;3.40;;;3.00;;
20865;SDS011;10593;48.398;10.698;2024-01-15T08:13:59;4.23;;;3.70;;
20865;SDS011;10593;48.398;10.698;2024-01-15T08:16:25;5.43;;;4.23;;
20865;SDS011;10593;48.398;10.698;2024-01-15T08:18:52;4.33;;;3.83;;
20865;SDS011;10593;48.398;10.698;2024-01-15T08:21:18;5.57;;;4.10;;
20865;SDS011;10593;48.398;10.698;2024-01-15T08:23:44;4.23;;;3.60;;
20865;SDS011;10593;48.398;10.698;2024-01-15T08:26:10;4.27;;;3.87;;
20865;SDS011;10593;48.398;10.698;2024-01-15T08:28:36;5.33;;;4.37;;
20865;SDS011;10593;48.398;10.698;2024-01-15T08:31:02;4.20;;;3.70;;
20865;SDS011;10593;48.398;10.698;2024-01-15T08:33:28;4.77;;;4.00;;
20865;SDS011;10593;48.398;10.698;2024-01-15T08:35:54;3.83;;;3.47;;
20865;SDS011;10593;48.398;10.698;2024-01-15T08:38:20;4.67;;;3.77;;
20865;SDS011;10593;48.398;10.698;2024-01-15T08:40:46;4.30;;;3.67;;
20865;SDS011;10593;48.398;10.698;2024-01-15T08:43:11;4.90;;;3.43;;
20865;SDS011;10593;48.398;10.698;2024-01-15T08:45:37;3.87;;;3.47;;
20865;SDS011;10593;48.398;10.698;2024-01-15T08:48:03;5.33;;;3.57;;
20865;SDS011;10593;48.398;10.698;2024-01-15T08:50:29;3.53;;;3.10;;
20865;SDS011;10593;48.398;10.698;2024-01-15T08:52:57;4.87;;;3.63;;
20865;SDS011;10593;48.398;10.698;2024-01-15T08:55:23;3.37;;;3.07;;
20865;SDS011;10593;48.398;10.698;2024-01-15T08:57:49;4.33;;;3.67;;
20865;SDS011;10593;48.398;10.698;2024-01-15T09:00:15;4.77;;;3.70;;
20865;SDS011;10593;48.398;10.698;2024-01-15T09:02:42;5.63;;;4.20;;
20865;SDS011;10593;48.398;10.698;2024-01-15T09:05:09;4.33;;;3.60;;
20865;SDS011;10593;48.398;10.698;2024-01-15T09:07:34;3.80;;;3.20;;
20865;SDS011;10593;48.398;10.698;2024-01-15T09:10:00;3.80;;;3.10;;
20865;SDS011;10593;48.398;10.698;2024-01-15T09:12:26;4.10;;;2.93;;
20865;SDS011;10593;48.398;10.698;2024-01-15T09:14:52;3.77;;;3.20;;
20865;SDS011;10593;48.398;10.698;2024-01-15T09:17:18;3.50;;;3.20;;
20865;SDS011;10593;48.398;10.698;2024-01-15T09:19:46;4.77;;;3.20;;
20865;SDS011;10593;48.398;10.698;2024-01-15T09:22:12;3.97;;;3.30;;
20865;SDS011;10593;48.398;10.698;2024-01-15T09:24:42;3.90;;;3.33;;
20865;SDS011;10593;48.398;10.698;2024-01-15T09:27:07;3.43;;;3.13;;
20865;SDS011;10593;48.398;10.698;2024-01-15T09:29:33;3.23;;;2.93;;
20865;SDS011;10593;48.398;10.698;2024-01-15T09:31:59;3.67;;;3.33;;
20865;SDS011;10593;48.398;10.698;2024-01-15T09:34:24;3.60;;;2.77;;
20865;SDS011;10593;48.398;10.698;2024-01-15T09:36:50;3.43;;;3.13;;
20865;SDS011;10593;48.398;10.698;2024-01-15T09:39:16;3.33;;;3.03;;
20865;SDS011;10593;48.398;10.698;2024-01-15T09:41:41;3.00;;;2.70;;
20865;SDS011;10593;48.398;10.698;2024-01-15T09:44:08;3.13;;;2.20;;
20865;SDS011;10593;48.398;10.698;2024-01-15T09:46:35;3.73;;;2.43;;
20865;SDS011;10593;48.398;10.698;2024-01-15T09:49:01;3.10;;;2.03;;
20865;SDS011;10593;48.398;10.698;2024-01-15T09:51:30;3.00;;;2.20;;
20865;SDS011;10593;48.398;10.698;2024-01-15T09:53:57;1.87;;;1.77;;
20865;SDS011;10593;48.398;10.698;2024-01-15T09:56:24;2.00;;;1.70;;
20865;SDS011;10593;48.398;10.698;2024-01-15T09:58:50;2.30;;;1.70;;
20865;SDS011;10593;48.398;10.698;2024-01-15T10:01:20;2.67;;;2.00;;
20865;SDS011;10593;48.398;10.698;2024-01-15T10:03:46;1.87;;;1.67;;
20865;SDS011;10593;48.398;10.698;2024-01-15T10:06:14;1.40;;;1.30;;
20865;SDS011;10593;48.398;10.698;2024-01-15T10:08:47;1.63;;;1.53;;
20865;SDS011;10593;48.398;10.698;2024-01-15T10:11:16;1.90;;;1.80;;
20865;SDS011;10593;48.398;10.698;2024-01-15T10:13:45;1.50;;;1.40;;
20865;SDS011;10593;48.398;10.698;2024-01-15T10:16:18;2.47;;;2.00;;
20865;SDS011;10593;48.398;10.698;2024-01-15T10:18:44;2.33;;;1.90;;
20865;SDS011;10593;48.398;10.698;2024-01-15T10:21:10;1.90;;;1.70;;
20865;SDS011;10593;48.398;10.698;2024-01-15T10:23:36;2.20;;;2.00;;
20865;SDS011;10593;48.398;10.698;2024-01-15T10:26:03;2.17;;;1.97;;
20865;SDS011;10593;48.398;10.698;2024-01-15T10:28:29;3.13;;;2.30;;
20865;SDS011;10593;48.398;10.698;2024-01-15T10:30:57;2.90;;;2.00;;
20865;SDS011;10593;48.398;10.698;2024-01-15T10:33:24;3.33;;;2.40;;
20865;SDS011;10593;48.398;10.698;2024-01-15T10:35:51;2.80;;;2.33;;
20865;SDS011;10593;48.398;10.698;2024-01-15T10:38:23;3.47;;;2.53;;
20865;SDS011;10593;48.398;10.698;2024-01-15T10:40:56;4.73;;;3.30;;
20865;SDS011;10593;48.398;10.698;2024-01-15T10:43:22;4.40;;;3.30;;
20865;SDS011;10593;48.398;10.698;2024-01-15T10:45:48;3.33;;;2.37;;
20865;SDS011;10593;48.398;10.698;2024-01-15T10:48:18;3.00;;;2.43;;
20865;SDS011;10593;48.398;10.698;2024-01-15T10:50:45;3.47;;;2.63;;
20865;SDS011;10593;48.398;10.698;2024-01-15T10:53:13;2.87;;;2.40;;
20865;SDS011;10593;48.398;10.698;2024-01-15T10:55:41;2.53;;;2.27;;
20865;SDS011;10593;48.398;10.698;2024-01-15T10:58:08;3.30;;;2.40;;
20865;SDS011;10593;48.398;10.698;2024-01-15T11:00:35;2.83;;;2.60;;
20865;SDS011;10593;48.398;10.698;2024-01-15T11:03:04;2.00;;;1.90;;
20865;SDS011;10593;48.398;10.698;2024-01-15T11:06:04;5.50;;;2.20;;
20865;SDS011;10593;48.398;10.698;2024-01-15T11:08:24;2.37;;;1.90;;
20865;SDS011;10593;48.398;10.698;2024-01-15T11:10:50;1.60;;;1.50;;
20865;SDS011;10593;48.398;10.698;2024-01-15T11:16:04;1.63;;;1.53;;
20865;SDS011;10593;48.398;10.698;2024-01-15T11:18:36;2.53;;;2.03;;
20865;SDS011;10593;48.398;10.698;2024-01-15T11:23:43;1.60;;;1.50;;
20865;SDS011;10593;48.398;10.698;2024-01-15T11:26:29;2.70;;;1.43;;
20865;SDS011;10593;48.398;10.698;2024-01-15T11:29:33;1.90;;;1.80;;
20865;SDS011;10593;48.398;10.698;2024-01-15T11:32:02;2.93;;;2.73;;
20865;SDS011;10593;48.398;10.698;2024-01-15T11:40:23;2.10;;;1.90;;
20865;SDS011;10593;48.398;10.698;2024-01-15T11:43:03;1.80;;;1.70;;
20865;SDS011;10593;48.398;10.698;2024-01-15T11:45:31;1.53;;;1.43;;
20865;SDS011;10593;48.398;10.698;2024-01-15T11:48:05;2.87;;;2.67;;
20865;SDS011;10593;48.398;10.698;2024-01-15T11:50:37;2.67;;;2.37;;
20865;SDS011;10593;48.398;10.698;2024-01-15T11:53:20;1.80;;;1.70;;
20865;SDS011;10593;48.398;10.698;2024-01-15T11:56:02;2.00;;;1.80;;
20865;SDS011;10593;48.398;10.698;2024-01-15T11:58:36;2.37;;;2.17;;
20865;SDS011;10593;48.398;10.698;2024-01-15T12:01:02;2.67;;;2.47;;
20865;SDS011;10593;48.398;10.698;2024-01-15T12:03:28;3.70;;;2.50;;
20865;SDS011;10593;48.398;10.698;2024-01-15T12:05:58;2.70;;;2.50;;
20865;SDS011;10593;48.398;10.698;2024-01-15T12:08:25;2.37;;;2.10;;
20865;SDS011;10593;48.398;10.698;2024-01-15T12:10:52;2.13;;;2.03;;
20865;SDS011;10593;48.398;10.698;2024-01-15T12:13:18;2.17;;;2.07;;
20865;SDS011;10593;48.398;10.698;2024-01-15T12:15:45;2.27;;;1.97;;
20865;SDS011;10593;48.398;10.698;2024-01-15T12:18:13;2.63;;;2.40;;
20865;SDS011;10593;48.398;10.698;2024-01-15T12:20:42;2.70;;;2.00;;
20865;SDS011;10593;48.398;10.698;2024-01-15T12:23:11;2.37;;;2.20;;
20865;SDS011;10593;48.398;10.698;2024-01-15T12:25:38;3.10;;;2.80;;
20865;SDS011;10593;48.398;10.698;2024-01-15T12:28:04;2.63;;;2.30;;
20865;SDS011;10593;48.398;10.698;2024-01-15T12:30:32;3.13;;;2.57;;
20865;SDS011;10593;48.398;10.698;2024-01-15T12:33:03;2.67;;;2.47;;
20865;SDS011;10593;48.398;10.698;2024-01-15T12:35:29;3.17;;;2.70;;
20865;SDS011;10593;48.398;10.698;2024-01-15T12:37:55;2.60;;;2.37;;
20865;SDS011;10593;48.398;10.698;2024-01-15T12:40:21;3.30;;;2.50;;
20865;SDS011;10593;48.398;10.698;2024-01-15T12:42:48;2.87;;;2.60;;
20865;SDS011;10593;48.398;10.698;2024-01-15T12:45:14;3.43;;;2.83;;
20865;SDS011;10593;48.398;10.698;2024-01-15T12:47:40;4.47;;;3.40;;
20865;SDS011;10593;48.398;10.698;2024-01-15T12:50:09;4.20;;;3.50;;
20865;SDS011;10593;48.398;10.698;2024-01-15T12:52:37;4.07;;;3.20;;
20865;SDS011;10593;48.398;10.698;2024-01-15T12:55:06;3.83;;;3.33;;
20865;SDS011;10593;48.398;10.698;2024-01-15T12:57:34;3.30;;;3.00;;
20865;SDS011;10593;48.398;10.698;2024-01-15T13:00:01;3.30;;;3.00;;
20865;SDS011;10593;48.398;10.698;2024-01-15T13:02:32;2.97;;;2.67;;
20865;SDS011;10593;48.398;10.698;2024-01-15T13:04:59;4.30;;;2.87;;
20865;SDS011;10593;48.398;10.698;2024-01-15T13:07:25;3.67;;;3.00;;
20865;SDS011;10593;48.398;10.698;2024-01-15T13:09:51;3.10;;;2.73;;
20865;SDS011;10593;48.398;10.698;2024-01-15T13:12:18;3.27;;;2.80;;
20865;SDS011;10593;48.398;10.698;2024-01-15T13:14:45;3.03;;;2.73;;
20865;SDS011;10593;48.398;10.698;2024-01-15T13:17:12;2.90;;;2.70;;
20865;SDS011;10593;48.398;10.698;2024-01-15T13:19:39;3.27;;;2.93;;
20865;SDS011;10593;48.398;10.698;2024-01-15T13:22:05;2.90;;;2.70;;
20865;SDS011;10593;48.398;10.698;2024-01-15T13:24:34;3.53;;;3.10;;
20865;SDS011;10593;48.398;10.698;2024-01-15T13:27:01;3.20;;;2.53;;
20865;SDS011;10593;48.398;10.698;2024-01-15T13:29:29;2.97;;;2.67;;
20865;SDS011;10593;48.398;10.698;2024-01-15T13:31:55;3.27;;;2.93;;
20865;SDS011;10593;48.398;10.698;2024-01-15T13:34:21;3.17;;;2.87;;
20865;SDS011;10593;48.398;10.698;2024-01-15T13:36:47;3.67;;;3.07;;
20865;SDS011;10593;48.398;10.698;2024-01-15T13:39:13;4.23;;;3.30;;
20865;SDS011;10593;48.398;10.698;2024-01-15T13:41:38;3.90;;;3.27;;
20865;SDS011;10593;48.398;10.698;2024-01-15T13:44:04;4.67;;;3.30;;
20865;SDS011;10593;48.398;10.698;2024-01-15T13:46:30;3.77;;;3.13;;
20865;SDS011;10593;48.398;10.698;2024-01-15T13:48:55;3.83;;;3.37;;
20865;SDS011;10593;48.398;10.698;2024-01-15T13:51:21;3.30;;;3.00;;
20865;SDS011;10593;48.398;10.698;2024-01-15T13:53:48;4.67;;;3.40;;
20865;SDS011;10593;48.398;10.698;2024-01-15T13:56:15;3.87;;;3.20;;
20865;SDS011;10593;48.398;10.698;2024-01-15T13:58:41;4.33;;;3.30;;
20865;SDS011;10593;48.398;10.698;2024-01-15T14:01:07;4.70;;;3.63;;
20865;SDS011;10593;48.398;10.698;2024-01-15T14:03:34;5.13;;;3.73;;
20865;SDS011;10593;48.398;10.698;2024-01-15T14:06:00;5.87;;;3.57;;
20865;SDS011;10593;48.398;10.698;2024-01-15T14:08:28;4.20;;;3.80;;
20865;SDS011;10593;48.398;10.698;2024-01-15T14:10:53;4.47;;;4.07;;
20865;SDS011;10593;48.398;10.698;2024-01-15T14:13:20;4.40;;;3.73;;
20865;SDS011;10593;48.398;10.698;2024-01-15T14:15:46;4.70;;;4.00;;
20865;SDS011;10593;48.398;10.698;2024-01-15T14:18:14;4.37;;;3.80;;
20865;SDS011;10593;48.398;10.698;2024-01-15T14:20:41;5.10;;;4.30;;
20865;SDS011;10593;48.398;10.698;2024-01-15T14:23:07;4.00;;;3.60;;
20865;SDS011;10593;48.398;10.698;2024-01-15T14:25:33;4.87;;;3.97;;
20865;SDS011;10593;48.398;10.698;2024-01-15T14:27:59;5.10;;;4.23;;
20865;SDS011;10593;48.398;10.698;2024-01-15T14:30:25;5.53;;;4.73;;
20865;SDS011;10593;48.398;10.698;2024-01-15T14:32:50;5.37;;;4.33;;
20865;SDS011;10593;48.398;10.698;2024-01-15T14:35:16;4.90;;;4.40;;
20865;SDS011;10593;48.398;10.698;2024-01-15T14:37:42;6.47;;;4.97;;
20865;SDS011;10593;48.398;10.698;2024-01-15T14:40:08;6.97;;;5.90;;
20865;SDS011;10593;48.398;10.698;2024-01-15T14:42:35;6.83;;;6.13;;
20865;SDS011;10593;48.398;10.698;2024-01-15T14:45:02;6.67;;;6.07;;